Austin (LCRA Redbud)'s Hourly Summary for Sunday, July 8, 2018
Hour Temp
(f)
RH
(%)
Solar Rad.
(MJ/m2)
Rainfall
(in)
Wind
(mph)
7/8/2018 12:00 AM 75 84 0 0 0
7/8/2018 1:00 AM 73 85 0 0 0.05
7/8/2018 2:00 AM 73 89 0 0 0
7/8/2018 3:00 AM 72 91 0 0 0
7/8/2018 4:00 AM 71 93 0 0 0
7/8/2018 5:00 AM 71 94 0 0 0.04
7/8/2018 6:00 AM 71 94 0 0 0.05
7/8/2018 7:00 AM 71 94 0.02 0 0.05
7/8/2018 8:00 AM 75 90 0.22 0 0.07
7/8/2018 9:00 AM 79 79 0.57 0 0.26
7/8/2018 10:00 AM 82 71 1.44 0 0.62
7/8/2018 11:00 AM 83 63 1.66 0 0.74
7/8/2018 12:00 PM 86 61 2.12 0 1.16
7/8/2018 1:00 PM 87 57 3.03 0 1.57
7/8/2018 2:00 PM 87 53 2.09 0 1.08
7/8/2018 3:00 PM 90 52 2.2 0 1.18
7/8/2018 4:00 PM 92 42 2.38 0 1.89
7/8/2018 5:00 PM 92 43 2.34 0 1.18
7/8/2018 6:00 PM 91 59 1.27 0 2.28
7/8/2018 7:00 PM 83 66 0.44 0.02 2.22
7/8/2018 8:00 PM 81 88 0.23 0.03 1.11
7/8/2018 9:00 PM 76 95 0.02 0.01 0.06
7/8/2018 10:00 PM 75 95 0 0 0
7/8/2018 11:00 PM 75 94 0 0 0.06
Data Summary 79 76 20.03 0.06 0.65